Driggs, Idaho
Current Conditions -  °F | °C
As of 6:56 PM on Sunday 21 Dec 2014 (Local Time) from KDIJ Reporting Station
Clear Clear  
Wind Chill: 25°   Ceiling: Unl
Heat Index: 31°   Visibility: 10mi
Dew Point: 26°   Wind: 6mph
Humidity: 82%   Direction: 50°NE
Pressure: 29.86"   Gusts: NA
Location:  43.72°N, 111.11°W
Report Text: KDIJ 220156Z AUTO 05005KT 10SM CLR M01/M03 A2986 RMK AO2 T10051033 SLP099
Loading
Personal Weather Stations






























Interactive Weather Map New forecast layout! Learn more

10-Day Weather Forecast

Advertisements
Track Severe Weather on mobile